DIAP/ABJ METAR and TAF weather

Enter ICAO airport designator
Station Type Date Time Source
DIAP METAR 2020/09/18 19:00 UTC NOAA

DIAP 181900Z 20005KT 9999 FEW012 25/23 Q1013 NOSIG


Station Type Date Time Source
DIAP Decoded METAR 2020/09/18 19:00 UTC NOAA

Abidjan, Cote d'Ivoire (DIAP) 05-15N 003-56W 8M
Sep 18, 2020 - 03:00 PM EDT / 2020.09.18 1900 UTC
Wind: from the SSW (200 degrees) at 6 MPH (5 KT):0
Visibility: greater than 7 mile(s):0
Sky conditions: mostly clear
Temperature: 77 F (25 C)
Dew Point: 73 F (23 C)
Relative Humidity: 88%
Pressure (altimeter): 29.91 in. Hg (1013 hPa)
ob: DIAP 181900Z 20005KT 9999 FEW012 25/23 Q1013 NOSIG
cycle: 19

Station Type Date Time Source
DIAP TAF 2020/09/18 18:24 UTC NOAA

TAF DIAP 181700Z 1818/1924 21006KT 9999 SCT012 PROB30
TEMPO 1905/1908 4000 RA BKN012
TEMPO 1908/1914 BKN012 PROB30
TEMPO 1918/1924 TS BKN012 FEW020CB

Example: see airport list